createdAt,value
2024-05-09T00:00:48.491Z,98520.77
2024-05-09T00:03:37.289Z,98520.61
2024-05-09T00:06:08.094Z,98518.08
2024-05-09T00:08:36.683Z,98517.60
2024-05-09T00:11:05.243Z,98515.30
2024-05-09T00:13:33.683Z,98515.86
2024-05-09T00:16:02.128Z,98514.84
2024-05-09T00:18:30.625Z,98516.22
2024-05-09T00:20:59.736Z,98518.11
2024-05-09T00:23:28.771Z,98518.84
2024-05-09T00:25:57.156Z,98519.02
2024-05-09T00:28:25.908Z,98520.11
2024-05-09T00:30:54.144Z,98515.45
2024-05-09T00:33:23.159Z,98515.04
2024-05-09T00:35:52.775Z,98512.70
2024-05-09T00:38:21.243Z,98510.67
2024-05-09T00:40:49.695Z,98508.55
2024-05-09T00:43:18.002Z,98510.17
2024-05-09T00:45:47.240Z,98510.63
2024-05-09T00:48:19.801Z,98510.88
2024-05-09T00:50:50.955Z,98502.78
2024-05-09T00:53:19.669Z,98505.05
2024-05-09T00:55:48.350Z,98504.85
2024-05-09T00:58:20.937Z,98504.51
2024-05-09T01:00:50.618Z,98506.14
2024-05-09T01:03:20.387Z,98506.02
2024-05-09T01:05:50.140Z,98505.06
2024-05-09T01:08:18.828Z,98502.81
2024-05-09T01:10:48.563Z,98499.31
2024-05-09T01:13:17.399Z,98501.14
2024-05-09T01:15:48.105Z,98501.83
2024-05-09T01:18:17.074Z,98504.58
2024-05-09T01:20:45.811Z,98503.08
2024-05-09T01:23:15.929Z,98504.73
2024-05-09T01:25:46.409Z,98505.09
2024-05-09T01:28:16.196Z,98505.04
2024-05-09T01:30:44.707Z,98510.14
2024-05-09T01:33:13.508Z,98509.39
2024-05-09T01:35:43.121Z,98510.77
2024-05-09T01:38:17.248Z,98508.85
2024-05-09T01:40:47.341Z,98508.13
2024-05-09T01:43:16.214Z,98505.33
2024-05-09T01:45:44.699Z,98502.83
2024-05-09T01:48:13.368Z,98502.29
2024-05-09T01:50:43.261Z,98504.89
2024-05-09T01:53:14.917Z,98504.83
2024-05-09T01:55:44.575Z,98505.87
2024-05-09T01:58:13.178Z,98510.73
2024-05-09T02:00:43.412Z,98507.36
2024-05-09T02:03:15.915Z,98504.56
2024-05-09T02:05:49.803Z,98503.20
2024-05-09T02:08:20.176Z,98501.45
2024-05-09T02:10:50.348Z,98498.58
2024-05-09T02:13:19.461Z,98498.27
2024-05-09T02:15:52.127Z,98498.95
2024-05-09T02:18:20.835Z,98498.69
2024-05-09T02:20:49.531Z,98499.98
2024-05-09T02:23:18.335Z,98497.07
2024-05-09T02:25:47.732Z,98493.82
2024-05-09T02:28:16.125Z,98499.58
2024-05-09T02:30:44.327Z,98496.02
2024-05-09T02:33:14.257Z,98498.08
2024-05-09T02:35:44.245Z,98494.91
2024-05-09T02:38:13.726Z,98490.80
2024-05-09T02:40:43.608Z,98490.76
2024-05-09T02:43:13.040Z,98490.05
2024-05-09T02:45:42.006Z,98490.41
2024-05-09T02:48:12.410Z,98490.08
2024-05-09T02:50:42.262Z,98492.91
2024-05-09T02:53:14.855Z,98498.90
2024-05-09T02:55:43.593Z,98496.80
2024-05-09T02:58:12.238Z,98498.43
2024-05-09T03:00:42.419Z,98495.66
2024-05-09T03:03:14.250Z,98495.48
2024-05-09T03:05:47.153Z,98494.73
2024-05-09T03:08:15.802Z,98498.25
2024-05-09T03:10:44.354Z,98494.08
2024-05-09T03:13:15.459Z,98495.67
2024-05-09T03:15:45.551Z,98496.95
2024-05-09T03:18:15.789Z,98496.33
2024-05-09T03:20:44.977Z,98496.95
2024-05-09T03:23:13.512Z,98498.70
2024-05-09T03:25:41.968Z,98500.08
2024-05-09T03:28:11.394Z,98500.08
2024-05-09T03:30:46.613Z,98501.30
2024-05-09T03:33:29.214Z,98506.61
2024-05-09T03:35:58.048Z,98506.89
2024-05-09T03:38:26.536Z,98511.73
2024-05-09T03:40:55.190Z,98513.80
2024-05-09T03:43:23.934Z,98516.17
2024-05-09T03:45:52.519Z,98510.41
2024-05-09T03:48:21.637Z,98516.44
2024-05-09T03:50:50.862Z,98516.38
2024-05-09T03:53:19.287Z,98518.48
2024-05-09T03:55:48.795Z,98513.02
2024-05-09T03:58:19.034Z,98517.23
2024-05-09T04:00:47.500Z,98519.31
2024-05-09T04:03:16.360Z,98527.38
2024-05-09T04:05:46.736Z,98523.81
2024-05-09T04:08:16.382Z,98526.81
2024-05-09T04:10:45.983Z,98527.88
2024-05-09T04:13:14.802Z,98530.73
2024-05-09T04:15:43.287Z,98530.94
2024-05-09T04:18:12.780Z,98533.56
2024-05-09T04:20:41.730Z,98538.79
2024-05-09T04:23:14.868Z,98540.49
2024-05-09T04:25:45.348Z,98539.02
2024-05-09T04:28:14.659Z,98538.39
2024-05-09T04:30:43.637Z,98543.17
2024-05-09T04:33:15.050Z,98545.23
2024-05-09T04:35:44.580Z,98544.27
2024-05-09T04:38:14.688Z,98544.39
2024-05-09T04:40:43.947Z,98547.45
2024-05-09T04:43:18.572Z,98547.52
2024-05-09T04:45:47.379Z,98545.17
2024-05-09T04:48:16.982Z,98544.08
2024-05-09T04:50:45.894Z,98545.32
2024-05-09T04:53:18.854Z,98545.36
2024-05-09T04:55:47.546Z,98548.09
2024-05-09T04:58:16.184Z,98548.70
2024-05-09T05:00:44.600Z,98549.89
2024-05-09T05:03:15.285Z,98551.52
2024-05-09T05:05:47.140Z,98551.42
2024-05-09T05:08:17.990Z,98553.60
2024-05-09T05:10:49.000Z,98558.71
2024-05-09T05:13:22.731Z,98561.11
2024-05-09T05:15:57.285Z,98559.45
2024-05-09T05:18:28.305Z,98555.45
2024-05-09T05:20:59.261Z,98557.85
2024-05-09T05:23:28.206Z,98558.70
2024-05-09T05:25:57.251Z,98559.39
2024-05-09T05:28:25.694Z,98557.60
2024-05-09T05:30:54.080Z,98557.50
2024-05-09T05:33:23.173Z,98554.61
2024-05-09T05:35:52.046Z,98555.63
2024-05-09T05:38:23.865Z,98555.42
2024-05-09T05:40:55.212Z,98555.92
2024-05-09T05:43:23.952Z,98559.71
2024-05-09T05:45:52.215Z,98551.95
2024-05-09T05:48:22.358Z,98550.92
2024-05-09T05:50:52.775Z,98556.05
2024-05-09T05:53:21.231Z,98555.08
2024-05-09T05:55:49.620Z,98552.89
2024-05-09T05:58:20.382Z,98552.49
2024-05-09T06:00:48.923Z,98551.66
2024-05-09T06:03:17.482Z,98552.91
2024-05-09T06:05:46.595Z,98550.67
2024-05-09T06:08:15.364Z,98548.85
2024-05-09T06:10:43.993Z,98552.59
2024-05-09T06:13:14.325Z,98552.60
2024-05-09T06:15:43.957Z,98552.89
2024-05-09T06:18:14.658Z,98549.17
2024-05-09T06:20:44.276Z,98552.84
2024-05-09T06:23:14.365Z,98551.69
2024-05-09T06:25:43.872Z,98555.23
2024-05-09T06:28:12.346Z,98556.17
2024-05-09T06:30:42.349Z,98557.39
2024-05-09T06:33:14.134Z,98558.19
2024-05-09T06:35:47.096Z,98559.86
2024-05-09T06:38:15.802Z,98559.33
2024-05-09T06:40:44.778Z,98560.08
2024-05-09T06:43:16.576Z,98563.27
2024-05-09T06:45:48.583Z,98567.41
2024-05-09T06:48:19.722Z,98567.88
2024-05-09T06:50:48.701Z,98568.61
2024-05-09T06:53:22.433Z,98571.15
2024-05-09T06:55:50.827Z,98569.40
2024-05-09T06:58:19.370Z,98568.13
2024-05-09T07:00:47.736Z,98568.22
2024-05-09T07:03:18.251Z,98567.68
2024-05-09T07:05:49.237Z,98565.37
2024-05-09T07:08:18.882Z,98566.29
2024-05-09T07:10:48.011Z,98567.77
2024-05-09T07:13:16.906Z,98565.24
2024-05-09T07:15:45.212Z,98566.34
2024-05-09T07:18:17.308Z,98560.73
2024-05-09T07:20:48.064Z,98562.16
2024-05-09T07:23:17.169Z,98559.19
2024-05-09T07:25:46.398Z,98561.42
2024-05-09T07:28:16.767Z,98561.83
2024-05-09T07:30:45.913Z,98562.88
2024-05-09T07:33:23.011Z,98562.22
2024-05-09T07:35:53.070Z,98561.62
2024-05-09T07:38:22.114Z,98560.85
2024-05-09T07:40:50.765Z,98564.68
2024-05-09T07:43:19.348Z,98564.02
2024-05-09T07:45:53.031Z,98561.02
2024-05-09T07:52:39.318Z,98565.60
2024-05-09T07:53:49.510Z,98568.45
2024-05-09T07:56:22.838Z,98572.12
2024-05-09T07:58:56.312Z,98571.10
2024-05-09T08:01:26.627Z,98566.95
2024-05-09T08:03:56.126Z,98567.89
2024-05-09T08:06:25.578Z,98565.27
2024-05-09T08:08:54.376Z,98562.48
2024-05-09T08:11:23.804Z,98559.09
2024-05-09T08:13:52.302Z,98558.92
2024-05-09T08:16:21.081Z,98558.71
2024-05-09T08:18:50.350Z,98559.23
2024-05-09T08:21:19.527Z,98559.87
2024-05-09T08:23:47.952Z,98563.70
2024-05-09T08:26:16.628Z,98564.70
2024-05-09T08:28:45.276Z,98565.80
2024-05-09T08:31:13.908Z,98562.40
2024-05-09T08:33:49.211Z,98567.05
2024-05-09T08:36:17.743Z,98573.81
2024-05-09T08:38:46.062Z,98573.39
2024-05-09T08:41:15.942Z,98575.92
2024-05-09T08:43:44.564Z,98574.44
2024-05-09T08:46:14.962Z,98576.40
2024-05-09T08:48:45.693Z,98574.90
2024-05-09T08:51:14.450Z,98575.54
2024-05-09T08:53:42.947Z,98574.55
2024-05-09T08:56:11.909Z,98573.11
2024-05-09T08:58:42.008Z,98572.34
2024-05-09T09:01:18.041Z,98569.34
2024-05-09T09:03:49.010Z,98571.40
2024-05-09T09:06:25.152Z,98569.08
2024-05-09T09:09:14.898Z,98570.00
2024-05-09T09:11:44.541Z,98567.64
2024-05-09T09:14:13.106Z,98566.86
2024-05-09T09:16:41.520Z,98566.56
2024-05-09T09:19:10.174Z,98565.80
2024-05-09T09:21:38.707Z,98565.38
2024-05-09T09:24:09.970Z,98565.58
2024-05-09T09:26:39.864Z,98564.58
2024-05-09T09:29:08.697Z,98563.20
2024-05-09T09:31:39.232Z,98563.09
2024-05-09T09:34:09.216Z,98559.45
2024-05-09T09:36:44.520Z,98555.82
2024-05-09T09:39:17.463Z,98552.01
2024-05-09T09:41:48.160Z,98550.42
2024-05-09T09:44:19.498Z,98554.50
2024-05-09T09:46:51.589Z,98550.83
2024-05-09T09:49:23.118Z,98550.15
2024-05-09T09:51:52.456Z,98541.41
2024-05-09T09:54:22.040Z,98547.62
2024-05-09T09:56:52.436Z,98551.02
2024-05-09T09:59:22.013Z,98548.15
2024-05-09T10:01:50.649Z,98547.91
2024-05-09T10:04:21.808Z,98548.03
2024-05-09T10:06:59.654Z,98546.65
2024-05-09T10:09:29.848Z,98545.34
2024-05-09T10:12:11.063Z,98543.70
2024-05-09T10:14:45.260Z,98544.00
2024-05-09T10:17:13.947Z,98546.02
2024-05-09T10:19:46.629Z,98542.52
2024-05-09T10:22:28.574Z,98541.94
2024-05-09T10:25:05.801Z,98544.98
2024-05-09T10:27:34.506Z,98541.15
2024-05-09T10:30:11.497Z,98540.54
2024-05-09T10:32:45.047Z,98543.23
2024-05-09T10:35:19.534Z,98541.73
2024-05-09T10:37:48.326Z,98541.05
2024-05-09T10:40:26.008Z,98544.39
2024-05-09T10:43:02.608Z,98540.20
2024-05-09T10:45:36.035Z,98534.55
2024-05-09T10:48:07.147Z,98533.20
2024-05-09T10:50:36.317Z,98533.86
2024-05-09T10:53:05.075Z,98532.86
2024-05-09T10:55:33.714Z,98529.66
2024-05-09T10:58:02.571Z,98528.84
2024-05-09T11:03:02.047Z,98526.80
2024-05-09T11:05:31.419Z,98523.79
2024-05-09T11:08:00.423Z,98524.13
2024-05-09T11:10:33.776Z,98522.98
2024-05-09T11:13:03.223Z,98516.83
2024-05-09T11:15:48.299Z,98510.09
2024-05-09T11:18:25.654Z,98508.67
2024-05-09T11:20:57.010Z,98510.41
2024-05-09T11:23:27.652Z,98506.38
2024-05-09T11:25:58.297Z,98511.91
2024-05-09T11:28:30.262Z,98510.34
2024-05-09T11:34:42.188Z,98505.59
2024-05-09T11:37:13.304Z,98511.66
2024-05-09T11:39:04.173Z,98510.30
2024-05-09T11:39:42.055Z,98505.85
2024-05-09T11:42:10.767Z,98506.73
2024-05-09T11:44:39.351Z,98499.62
2024-05-09T11:47:07.814Z,98499.86
2024-05-09T11:49:36.285Z,98499.66
2024-05-09T11:52:05.310Z,98494.13
2024-05-09T11:54:33.882Z,98496.08
2024-05-09T11:57:02.405Z,98494.59
2024-05-09T11:59:31.221Z,98492.30
2024-05-09T12:01:59.760Z,98496.86
2024-05-09T12:04:30.874Z,98488.91
2024-05-09T12:06:59.786Z,98486.44
2024-05-09T12:09:28.677Z,98480.17
2024-05-09T12:11:57.286Z,98481.96
2024-05-09T12:14:26.305Z,98480.36
2024-05-09T12:16:54.880Z,98474.42
2024-05-09T12:19:23.642Z,98471.56
2024-05-09T12:21:52.793Z,98472.87
2024-05-09T12:24:21.444Z,98466.91
2024-05-09T12:26:50.133Z,98463.98
2024-05-09T12:29:18.973Z,98461.77
2024-05-09T12:31:48.369Z,98459.67
2024-05-09T12:34:17.200Z,98464.77
2024-05-09T12:36:46.197Z,98458.27
2024-05-09T12:39:19.255Z,98461.05
2024-05-09T12:41:47.874Z,98460.48
2024-05-09T12:45:10.190Z,98468.30
2024-05-09T12:47:39.863Z,98462.89
2024-05-09T12:50:15.738Z,98461.30
2024-05-09T12:52:50.215Z,98462.02
2024-05-09T12:55:18.736Z,98456.27
2024-05-09T12:57:47.801Z,98459.77
2024-05-09T13:00:23.904Z,98454.02
2024-05-09T13:02:56.795Z,98450.02
2024-05-09T13:05:26.201Z,98448.35
2024-05-09T13:07:57.194Z,98448.98
2024-05-09T13:10:32.059Z,98444.36
2024-05-09T13:13:02.389Z,98440.74
2024-05-09T13:15:51.181Z,98437.14
2024-05-09T13:18:20.084Z,98432.73
2024-05-09T13:20:55.983Z,98431.64
2024-05-09T13:23:42.210Z,98429.08
2024-05-09T13:26:10.948Z,98422.67
2024-05-09T13:28:40.249Z,98420.88
2024-05-09T13:31:08.831Z,98422.77
2024-05-09T13:33:37.513Z,98420.25
2024-05-09T13:36:07.824Z,98412.86
2024-05-09T13:38:36.714Z,98406.13
2024-05-09T13:41:05.249Z,98413.02
2024-05-09T13:43:33.741Z,98412.56
2024-05-09T13:46:02.301Z,98409.31
2024-05-09T13:48:31.658Z,98409.09
2024-05-09T13:51:00.601Z,98409.13
2024-05-09T13:53:38.999Z,98398.02
2024-05-09T13:56:10.142Z,98392.30
2024-05-09T13:58:39.208Z,98390.50
2024-05-09T14:01:07.921Z,98388.78
2024-05-09T14:03:36.798Z,98387.80
2024-05-09T14:06:09.424Z,98390.23
2024-05-09T14:08:39.610Z,98390.15
2024-05-09T14:11:08.336Z,98388.05
2024-05-09T14:13:36.852Z,98386.95
2024-05-09T14:16:06.082Z,98385.73
2024-05-09T14:18:37.621Z,98378.64
2024-05-09T14:21:07.165Z,98375.23
2024-05-09T14:23:35.608Z,98378.92
2024-05-09T14:26:04.531Z,98381.29
2024-05-09T14:28:33.003Z,98373.91
2024-05-09T14:31:02.788Z,98372.98
2024-05-09T14:33:45.301Z,98372.00
2024-05-09T14:36:13.907Z,98374.10
2024-05-09T14:38:42.390Z,98365.67
2024-05-09T14:41:13.769Z,98363.03
2024-05-09T14:43:42.552Z,98361.91
2024-05-09T14:46:11.130Z,98365.30
2024-05-09T14:48:41.187Z,98364.58
2024-05-09T14:51:11.622Z,98360.45
2024-05-09T14:53:44.714Z,98362.73
2024-05-09T14:56:14.992Z,98360.16
2024-05-09T14:58:43.935Z,98356.45
2024-05-09T15:01:13.035Z,98357.05
2024-05-09T15:03:41.745Z,98354.73
2024-05-09T15:06:13.140Z,98356.84
2024-05-09T15:08:44.994Z,98357.89
2024-05-09T15:11:14.199Z,98364.90
2024-05-09T15:13:44.121Z,98358.89
2024-05-09T15:16:17.709Z,98360.38
2024-05-09T15:18:46.929Z,98365.05
2024-05-09T15:21:15.996Z,98365.30
2024-05-09T15:23:44.563Z,98371.08
2024-05-09T15:26:12.975Z,98371.88
2024-05-09T15:28:41.873Z,98373.09
2024-05-09T15:31:10.334Z,98372.92
2024-05-09T15:33:43.856Z,98376.15
2024-05-09T15:36:13.094Z,98372.16
2024-05-09T15:38:45.444Z,98367.23
2024-05-09T15:41:15.138Z,98368.70
2024-05-09T15:43:51.921Z,98368.21
2024-05-09T15:46:21.848Z,98366.81
2024-05-09T15:48:51.539Z,98365.80
2024-05-09T15:51:22.172Z,98367.54
2024-05-09T15:53:51.668Z,98364.25
2024-05-09T15:56:20.511Z,98364.48
2024-05-09T15:58:50.003Z,98362.88
2024-05-09T16:01:18.535Z,98361.20
2024-05-09T16:03:52.985Z,98363.05
2024-05-09T16:06:23.128Z,98361.02
2024-05-09T16:08:51.780Z,98365.15
2024-05-09T16:11:20.774Z,98363.15
2024-05-09T16:14:15.369Z,98366.23
2024-05-09T16:16:47.850Z,98367.30
2024-05-09T16:19:17.472Z,98366.34
2024-05-09T16:21:46.121Z,98361.30
2024-05-09T16:24:15.097Z,98361.25
2024-05-09T16:26:43.740Z,98365.65
2024-05-09T16:29:15.376Z,98362.33
2024-05-09T16:31:45.219Z,98367.60
2024-05-09T16:34:14.067Z,98373.25
2024-05-09T16:36:44.002Z,98371.18
2024-05-09T16:39:13.695Z,98369.42
2024-05-09T16:41:42.482Z,98370.16
2024-05-09T16:44:11.063Z,98364.84
2024-05-09T16:46:39.851Z,98368.88
2024-05-09T16:49:11.515Z,98369.56
2024-05-09T16:51:40.371Z,98371.71
2024-05-09T16:54:09.136Z,98376.70
2024-05-09T16:56:38.687Z,98381.00
2024-05-09T16:59:07.577Z,98382.52
2024-05-09T17:01:36.749Z,98380.89
2024-05-09T17:04:06.566Z,98385.23
2024-05-09T17:06:35.542Z,98385.34
2024-05-09T17:09:11.795Z,98384.15
2024-05-09T17:11:44.586Z,98387.31
2024-05-09T17:14:15.049Z,98386.86
2024-05-09T17:16:46.400Z,98392.05
2024-05-09T17:19:15.570Z,98389.36
2024-05-09T17:21:44.726Z,98393.86
2024-05-09T17:24:13.956Z,98394.01
2024-05-09T17:26:42.689Z,98396.52
2024-05-09T17:29:12.592Z,98394.71
2024-05-09T17:31:41.320Z,98395.92
2024-05-09T17:34:11.045Z,98396.27
2024-05-09T17:36:39.717Z,98397.02
2024-05-09T17:39:13.750Z,98397.58
2024-05-09T17:41:45.783Z,98398.89
2024-05-09T17:44:53.634Z,98405.33
2024-05-09T17:48:24.453Z,98407.02
2024-05-09T17:51:04.754Z,98408.81
2024-05-09T17:53:34.483Z,98408.19
2024-05-09T17:56:14.431Z,98412.20
2024-05-09T17:58:51.950Z,98414.54
2024-05-09T18:01:21.082Z,98415.04
2024-05-09T18:03:50.191Z,98421.73
2024-05-09T18:06:19.382Z,98422.27
2024-05-09T18:08:48.155Z,98428.43
2024-05-09T18:11:17.604Z,98429.43
2024-05-09T18:13:47.586Z,98431.64
2024-05-09T18:16:17.298Z,98430.98
2024-05-09T18:18:46.976Z,98430.77
2024-05-09T18:21:27.603Z,98435.36
2024-05-09T18:23:58.757Z,98439.69
2024-05-09T18:26:30.332Z,98446.94
2024-05-09T18:28:58.977Z,98452.10
2024-05-09T18:31:27.648Z,98455.91
2024-05-09T18:33:56.105Z,98458.34
2024-05-09T18:36:28.408Z,98463.59
2024-05-09T18:38:59.336Z,98463.73
2024-05-09T18:41:29.019Z,98464.52
2024-05-09T18:43:57.687Z,98463.33
2024-05-09T18:46:34.168Z,98467.77
2024-05-09T18:49:06.198Z,98470.91
2024-05-09T18:51:35.286Z,98474.97
2024-05-09T18:54:05.446Z,98478.08
2024-05-09T18:56:34.160Z,98479.44
2024-05-09T18:59:02.452Z,98482.52
2024-05-09T19:01:31.283Z,98485.84
2024-05-09T19:03:59.975Z,98487.59
2024-05-09T19:06:38.045Z,98489.23
2024-05-09T19:09:14.353Z,98491.80
2024-05-09T19:11:43.268Z,98495.91
2024-05-09T19:14:14.683Z,98499.40
2024-05-09T19:16:43.274Z,98500.59
2024-05-09T19:19:11.783Z,98499.11
2024-05-09T19:21:42.621Z,98500.09
2024-05-09T19:24:17.023Z,98505.79
2024-05-09T19:26:48.358Z,98510.80
2024-05-09T19:29:17.007Z,98511.75
2024-05-09T19:31:45.654Z,98514.66
2024-05-09T19:34:14.165Z,98512.98
2024-05-09T19:36:46.525Z,98511.13
2024-05-09T19:39:15.405Z,98512.77
2024-05-09T19:41:43.888Z,98512.44
2024-05-09T19:44:12.319Z,98514.21
2024-05-09T19:46:40.911Z,98512.13
2024-05-09T19:49:09.837Z,98512.86
2024-05-09T19:51:39.040Z,98510.30
2024-05-09T19:54:07.585Z,98511.27
2024-05-09T19:56:36.118Z,98515.95
2024-05-09T19:59:04.769Z,98516.36
2024-05-09T20:01:33.628Z,98519.89
2024-05-09T20:04:05.908Z,98523.98
2024-05-09T20:06:48.407Z,98518.80
2024-05-09T20:09:17.661Z,98523.58
2024-05-09T20:11:46.599Z,98523.48
2024-05-09T20:14:15.553Z,98523.58
2024-05-09T20:16:45.262Z,98519.13
2024-05-09T20:19:18.713Z,98522.84
2024-05-09T20:21:52.396Z,98521.14
2024-05-09T20:24:22.083Z,98515.91
2024-05-09T20:30:32.475Z,98518.12
2024-05-09T20:33:04.944Z,98525.71
2024-05-09T20:35:35.150Z,98521.73
2024-05-09T20:42:31.416Z,98516.46
2024-05-09T20:45:00.255Z,98523.49
2024-05-09T20:48:00.024Z,98522.48
2024-05-09T20:50:45.359Z,98522.91
2024-05-09T20:53:19.445Z,98522.09
2024-05-09T20:56:41.905Z,98519.19
2024-05-09T20:59:48.031Z,98517.29
2024-05-09T21:02:36.723Z,98510.73
2024-05-09T21:05:09.646Z,98517.39
2024-05-09T21:07:44.788Z,98516.04
2024-05-09T21:14:37.493Z,98520.01
2024-05-09T21:17:22.465Z,98526.73
2024-05-09T21:20:17.443Z,98522.41
2024-05-09T21:22:49.287Z,98522.30
2024-05-09T21:25:18.498Z,98523.73
2024-05-09T21:27:51.881Z,98524.80
2024-05-09T21:30:32.161Z,98523.58
2024-05-09T21:33:11.277Z,98528.69
2024-05-09T21:35:43.280Z,98528.37
2024-05-09T21:38:15.821Z,98525.24
2024-05-09T21:40:45.437Z,98528.42
2024-05-09T21:43:14.499Z,98530.20
2024-05-09T21:45:46.924Z,98534.41
2024-05-09T21:48:15.865Z,98532.32
2024-05-09T21:51:06.270Z,98532.52
2024-05-09T21:53:37.723Z,98529.58
2024-05-09T21:56:14.250Z,98534.67
2024-05-09T21:58:44.141Z,98532.25
2024-05-09T22:01:12.732Z,98533.68
2024-05-09T22:03:41.797Z,98533.88
2024-05-09T22:06:10.651Z,98536.67
2024-05-09T22:09:14.621Z,98536.33
2024-05-09T22:11:43.356Z,98536.20
2024-05-09T22:14:12.042Z,98541.80
2024-05-09T22:16:41.443Z,98539.04
2024-05-09T22:19:10.084Z,98543.44
2024-05-09T22:21:38.734Z,98543.27
2024-05-09T22:24:07.376Z,98545.38
2024-05-09T22:26:38.869Z,98548.19
2024-05-09T22:29:07.079Z,98544.52
2024-05-09T22:31:35.538Z,98543.66
2024-05-09T22:34:04.435Z,98543.34
2024-05-09T22:36:34.373Z,98544.90
2024-05-09T22:39:03.099Z,98547.69
2024-05-09T22:41:32.342Z,98545.05
2024-05-09T22:44:02.076Z,98544.88
2024-05-09T22:46:30.603Z,98541.58
2024-05-09T22:48:59.041Z,98548.45
2024-05-09T22:51:27.683Z,98548.30
2024-05-09T22:53:56.588Z,98551.27
2024-05-09T22:56:29.191Z,98552.16
2024-05-09T22:58:57.843Z,98555.50
2024-05-09T23:01:27.356Z,98554.65
2024-05-09T23:03:56.064Z,98552.38
2024-05-09T23:06:24.940Z,98556.06
2024-05-09T23:08:53.456Z,98552.05
2024-05-09T23:11:22.589Z,98552.77
2024-05-09T23:13:51.278Z,98550.66
2024-05-09T23:16:19.857Z,98548.23
2024-05-09T23:18:48.494Z,98548.59
2024-05-09T23:21:56.806Z,98549.13
2024-05-09T23:24:25.443Z,98547.55
2024-05-09T23:26:53.963Z,98549.13
2024-05-09T23:29:23.716Z,98549.83
2024-05-09T23:31:52.370Z,98549.31
2024-05-09T23:34:21.284Z,98545.98
2024-05-09T23:36:50.437Z,98547.25
2024-05-09T23:39:18.882Z,98546.21
2024-05-09T23:41:47.432Z,98545.34
2024-05-09T23:44:16.160Z,98545.52
2024-05-09T23:46:44.699Z,98547.63
2024-05-09T23:49:14.128Z,98545.17
2024-05-09T23:51:42.826Z,98547.47
2024-05-09T23:54:11.484Z,98546.96
2024-05-09T23:56:40.179Z,98550.30
2024-05-09T23:59:08.824Z,98548.02
